Wetterdaten: Freitag, 14.10.2011
Datum Zeit Temp. a Sch. Temp. a Son. Temp. a Bod. Feuchte a. Luftdruck Regen Wind Richtung Richtung Sonnenschein Helligkeit Taupunkt Windchill
14.10.2011 00:02 2,1 C 3,4 C 3,7 C 90 % 1032 hPa 0,0 l/m 0,0 m/s (0 Bft) O 100 0 min 0 lux 0,6 C 2,1 C
14.10.2011 00:22 1,8 C 3,2 C 3,8 C 91 % 1032 hPa 0,0 l/m 0,0 m/s (0 Bft) O 100 0 min 0 lux 0,5 C 1,8 C
14.10.2011 00:42 1,6 C 3,0 C 3,2 C 91 % 1032 hPa 0,0 l/m 0,0 m/s (0 Bft) O 100 0 min 0 lux 0,3 C 1,6 C
14.10.2011 01:02 1,4 C 2,7 C 3,4 C 91 % 1032 hPa 0,0 l/m 0,0 m/s (0 Bft) O 100 0 min 0 lux 0,1 C 1,4 C
14.10.2011 01:22 1,3 C 2,5 C 3,2 C 92 % 1032 hPa 0,0 l/m 0,0 m/s (0 Bft) O 100 0 min 0 lux 0,1 C 1,3 C
14.10.2011 01:42 1,3 C 2,5 C 3,2 C 92 % 1032 hPa 0,0 l/m 0,0 m/s (0 Bft) O 100 0 min 0 lux 0,1 C 1,3 C
14.10.2011 02:02 1,3 C 2,5 C 3,3 C 92 % 1032 hPa 0,0 l/m 0,0 m/s (0 Bft) O 100 0 min 0 lux 0,1 C 1,3 C
14.10.2011 02:22 1,3 C 2,5 C 3,3 C 93 % 1032 hPa 0,0 l/m 0,0 m/s (0 Bft) O 100 0 min 0 lux 0,3 C 1,3 C
14.10.2011 02:42 1,3 C 2,6 C 3,5 C 93 % 1032 hPa 0,0 l/m 0,0 m/s (0 Bft) O 100 0 min 0 lux 0,3 C 1,3 C
14.10.2011 03:02 1,3 C 2,6 C 3,1 C 93 % 1032 hPa 0,0 l/m 0,0 m/s (0 Bft) O 100 0 min 0 lux 0,3 C 1,3 C
14.10.2011 03:22 1,1 C 2,6 C 3,2 C 93 % 1032 hPa 0,0 l/m 0,0 m/s (0 Bft) O 100 0 min 0 lux 0,1 C 1,1 C
14.10.2011 03:42 1,1 C 2,6 C 2,6 C 94 % 1032 hPa 0,0 l/m 0,0 m/s (0 Bft) O 100 0 min 0 lux 0,2 C 1,1 C
14.10.2011 04:02 1,0 C 2,4 C 2,8 C 94 % 1032 hPa 0,0 l/m 0,0 m/s (0 Bft) O 100 0 min 0 lux 0,1 C 1,0 C
14.10.2011 04:22 0,9 C 2,4 C 2,7 C 94 % 1032 hPa 0,0 l/m 0,0 m/s (0 Bft) O 100 0 min 0 lux 0,0 C 0,9 C
14.10.2011 04:42 0,5 C 2,3 C 2,7 C 94 % 1032 hPa 0,0 l/m 0,0 m/s (0 Bft) O 100 0 min 0 lux -0,4 C 0,5 C
14.10.2011 05:02 0,4 C 2,1 C 2,6 C 94 % 1032 hPa 0,0 l/m 0,0 m/s (0 Bft) O 95 0 min 0 lux -0,5 C 0,4 C
14.10.2011 05:22 0,3 C 1,9 C 2,2 C 94 % 1032 hPa 0,0 l/m 0,0 m/s (0 Bft) O 95 0 min 0 lux -0,5 C 0,3 C
14.10.2011 05:42 0,1 C 1,8 C 2,0 C 94 % 1032 hPa 0,0 l/m 0,0 m/s (0 Bft) O 95 0 min 0 lux -0,7 C 0,1 C
14.10.2011 06:02 0,0 C 1,7 C 2,2 C 95 % 1032 hPa 0,0 l/m 0,0 m/s (0 Bft) O 95 0 min 0 lux -0,7 C 0,0 C
14.10.2011 06:22 -0,5 C 1,5 C 2,0 C 94 % 1032 hPa 0,0 l/m 0,0 m/s (0 Bft) O 95 0 min 0 lux -1,3 C -0,5 C
14.10.2011 06:42 -0,5 C 1,3 C 2,0 C 94 % 1032 hPa 0,0 l/m 0,0 m/s (0 Bft) O 95 0 min 0 lux -1,3 C -0,5 C
14.10.2011 07:02 -0,4 C 1,3 C 1,8 C 94 % 1032 hPa 0,0 l/m 0,0 m/s (0 Bft) O 100 0 min 0 lux -1,2 C -0,4 C
14.10.2011 07:22 -0,6 C 1,2 C 1,4 C 94 % 1032 hPa 0,0 l/m 0,0 m/s (0 Bft) O 100 0 min 0 lux -1,4 C -0,6 C
14.10.2011 07:42 -0,7 C 1,0 C 1,6 C 95 % 1032 hPa 0,0 l/m 0,0 m/s (0 Bft) O 100 0 min 208 lux -1,4 C -0,7 C
14.10.2011 08:02 -0,7 C 1,0 C 1,8 C 95 % 1033 hPa 0,0 l/m 0,0 m/s (0 Bft) O 100 0 min 808 lux -1,4 C -0,7 C
14.10.2011 08:22 -0,5 C 1,0 C 2,1 C 95 % 1033 hPa 0,0 l/m 0,0 m/s (0 Bft) O 100 0 min 2,63 klux -1,2 C -0,5 C
14.10.2011 08:42 -0,3 C 1,1 C 2,1 C 95 % 1033 hPa 0,0 l/m 0,0 m/s (0 Bft) O 100 0 min 6,11 klux -1,0 C -0,3 C
14.10.2011 09:02 0,1 C 1,4 C 2,5 C 95 % 1033 hPa 0,0 l/m 0,0 m/s (0 Bft) O 100 0 min 9,1 klux -0,6 C 0,1 C
14.10.2011 09:22 0,9 C 1,9 C 3,2 C 95 % 1033 hPa 0,0 l/m 0,0 m/s (0 Bft) O 100 0 min 15,1 klux 0,2 C 0,9 C
14.10.2011 09:42 1,6 C 2,6 C 3,3 C 95 % 1033 hPa 0,0 l/m 0,0 m/s (0 Bft) O 100 20 min 28,0 klux 0,9 C 1,6 C
14.10.2011 10:02 2,7 C 3,4 C 4,5 C 94 % 1033 hPa 0,0 l/m 0,0 m/s (0 Bft) O 100 20 min 37,5 klux 1,8 C 2,7 C
14.10.2011 10:22 3,1 C 8,3 C 4,5 C 95 % 1033 hPa 0,0 l/m 0,0 m/s (0 Bft) O 100 20 min 41,8 klux 2,4 C 3,1 C
14.10.2011 10:42 4,1 C 12,3 C 5,3 C 94 % 1033 hPa 0,0 l/m 0,0 m/s (0 Bft) O 100 20 min 45,1 klux 3,2 C 4,1 C
14.10.2011 11:02 6,4 C 15,7 C 6,3 C 94 % 1033 hPa 0,0 l/m 0,2 m/s (0 Bft) SO67.5 140 20 min 48,0 klux 5,5 C 6,4 C
14.10.2011 11:22 8,0 C 18,3 C 7,1 C 84 % 1033 hPa 0,0 l/m 0,1 m/s (0 Bft) SO45 125 20 min 51,0 klux 5,5 C 8,0 C
14.10.2011 11:42 8,6 C 19,8 C 7,9 C 80 % 1033 hPa 0,0 l/m 3,9 m/s (3 Bft) O-SO22.5 120 20 min 52,4 klux 5,3 C 3,9 C
14.10.2011 12:02 9,5 C 21,0 C 9,5 C 77 % 1033 hPa 0,0 l/m 3,8 m/s (3 Bft) SO67.5 125 20 min 55,0 klux 5,7 C 5,2 C
14.10.2011 12:22 9,9 C 21,7 C 10,5 C 76 % 1034 hPa 0,0 l/m 0,0 m/s (0 Bft) O45 95 20 min 56,2 klux 5,9 C 9,9 C
14.10.2011 12:42 10,0 C 20,0 C 11,1 C 75 % 1034 hPa 0,0 l/m 4,2 m/s (3 Bft) O-SO45 120 20 min 56,9 klux 5,8 C 5,1 C
14.10.2011 13:02 10,2 C 22,1 C 11,1 C 71 % 1034 hPa 0,0 l/m 4,0 m/s (3 Bft) O-SO45 120 20 min 58,6 klux 5,2 C 5,6 C
14.10.2011 13:22 10,3 C 22,5 C 10,9 C 65 % 1033 hPa 0,0 l/m 6,0 m/s (4 Bft) SO45 135 20 min 58,8 klux 4,0 C 3,1 C
14.10.2011 13:42 10,6 C 22,4 C 10,5 C 54 % 1033 hPa 0,0 l/m 6,3 m/s (4 Bft) O67.5 95 20 min 58,7 klux 1,7 C 3,2 C
14.10.2011 14:02 10,8 C 22,6 C 10,4 C 52 % 1033 hPa 0,0 l/m 6,0 m/s (4 Bft) O-SO67.5 120 20 min 58,7 klux 1,3 C 3,9 C
14.10.2011 14:22 10,9 C 23,6 C 10,3 C 50 % 1033 hPa 0,0 l/m 5,7 m/s (4 Bft) O-SO45 115 20 min 57,6 klux 0,9 C 4,3 C
14.10.2011 14:42 11,3 C 23,8 C 10,1 C 53 % 1033 hPa 0,0 l/m 5,5 m/s (3 Bft) O-SO45 115 20 min 56,3 klux 2,1 C 5,1 C
14.10.2011 15:01 11,4 C 24,8 C 10,3 C 55 % 1033 hPa 0,0 l/m 5,1 m/s (3 Bft) SO67.5 130 19 min 54,8 klux 2,7 C 5,6 C
14.10.2011 15:21 11,2 C 23,9 C 10,0 C 53 % 1033 hPa 0,0 l/m 3,6 m/s (3 Bft) SO67.5 125 20 min 51,5 klux 2,0 C 7,5 C
14.10.2011 15:41 11,4 C 22,9 C 10,4 C 55 % 1033 hPa 0,0 l/m 5,4 m/s (3 Bft) O-SO45 110 20 min 48,6 klux 2,7 C 5,3 C
14.10.2011 16:01 11,1 C 20,5 C 10,2 C 56 % 1033 hPa 0,0 l/m 4,9 m/s (3 Bft) SO67.5 125 20 min 37,9 klux 2,7 C 5,5 C
14.10.2011 16:21 10,8 C 18,2 C 9,8 C 57 % 1033 hPa 0,0 l/m 4,9 m/s (3 Bft) O-SO67.5 115 20 min 32,0 klux 2,6 C 5,0 C
14.10.2011 16:41 10,5 C 17,9 C 9,4 C 58 % 1033 hPa 0,0 l/m 5,6 m/s (4 Bft) SO22.5 125 20 min 33,2 klux 2,6 C 3,9 C
14.10.2011 17:01 10,0 C 15,8 C 9,1 C 58 % 1033 hPa 0,0 l/m 4,1 m/s (3 Bft) O-SO22.5 115 20 min 20,6 klux 2,1 C 5,3 C
14.10.2011 17:21 9,7 C 14,1 C 8,9 C 60 % 1032 hPa 0,0 l/m 0,1 m/s (0 Bft) O-NO67.5 75 0 min 14,1 klux 2,3 C 9,7 C
14.10.2011 17:41 9,4 C 12,4 C 8,7 C 61 % 1032 hPa 0,0 l/m 0,1 m/s (0 Bft) O-SO45 105 20 min 10,9 klux 2,3 C 9,4 C
14.10.2011 18:01 9,1 C 11,2 C 8,3 C 63 % 1032 hPa 0,0 l/m 3,4 m/s (3 Bft) O-SO22.5 115 20 min 9,1 klux 2,4 C 5,3 C
14.10.2011 18:21 8,6 C 10,4 C 7,8 C 66 % 1033 hPa 0,0 l/m 0,1 m/s (0 Bft) O45 95 20 min 10,5 klux 2,6 C 8,6 C
14.10.2011 18:41 7,6 C 9,2 C 7,1 C 70 % 1033 hPa 0,0 l/m 0,0 m/s (0 Bft) O22.5 85 0 min 2,47 klux 2,5 C 7,6 C
14.10.2011 19:01 7,1 C 8,4 C 6,7 C 75 % 1033 hPa 0,0 l/m 0,0 m/s (0 Bft) O-NO22.5 70 0 min 389 lux 3,0 C 7,1 C
14.10.2011 19:21 6,6 C 7,6 C 6,4 C 75 % 1033 hPa 0,0 l/m 0,0 m/s (0 Bft) O 90 0 min 28 lux 2,5 C 6,6 C
14.10.2011 19:41 5,9 C 7,0 C 6,1 C 80 % 1033 hPa 0,0 l/m 0,0 m/s (0 Bft) O 90 0 min 1 lux 2,7 C 5,9 C
14.10.2011 20:01 5,6 C 6,3 C 5,7 C 81 % 1033 hPa 0,0 l/m 0,0 m/s (0 Bft) O 95 0 min 0 lux 2,6 C 5,6 C
14.10.2011 20:21 5,3 C 5,8 C 5,3 C 84 % 1033 hPa 0,0 l/m 0,0 m/s (0 Bft) O 100 0 min 0 lux 2,8 C 5,3 C
14.10.2011 20:41 4,7 C 5,3 C 5,0 C 84 % 1033 hPa 0,0 l/m 0,1 m/s (0 Bft) O-NO 75 0 min 0 lux 2,2 C 4,7 C
14.10.2011 21:01 4,1 C 5,0 C 4,6 C 84 % 1033 hPa 0,0 l/m 0,0 m/s (0 Bft) O22.5 95 0 min 0 lux 1,6 C 4,1 C
14.10.2011 21:21 3,6 C 4,5 C 4,1 C 85 % 1033 hPa 0,0 l/m 0,0 m/s (0 Bft) O 90 0 min 0 lux 1,3 C 3,6 C
14.10.2011 21:41 3,3 C 4,2 C 4,1 C 86 % 1033 hPa 0,0 l/m 0,0 m/s (0 Bft) O 90 0 min 0 lux 1,2 C 3,3 C
14.10.2011 22:01 3,1 C 3,9 C 3,8 C 86 % 1033 hPa 0,0 l/m 0,0 m/s (0 Bft) O 90 0 min 0 lux 1,0 C 3,1 C
14.10.2011 22:21 3,0 C 3,7 C 3,8 C 87 % 1033 hPa 0,0 l/m 0,0 m/s (0 Bft) O 90 0 min 0 lux 1,1 C 3,0 C
14.10.2011 22:41 3,2 C 3,5 C 3,9 C 90 % 1033 hPa 0,0 l/m 0,1 m/s (0 Bft) O22.5 95 0 min 0 lux 1,7 C 3,2 C
14.10.2011 23:01 3,1 C 3,4 C 3,7 C 90 % 1033 hPa 0,0 l/m 0,0 m/s (0 Bft) O22.5 95 0 min 0 lux 1,6 C 3,1 C
14.10.2011 23:21 2,7 C 3,2 C 3,5 C 90 % 1033 hPa 0,0 l/m 0,0 m/s (0 Bft) O 100 0 min 0 lux 1,2 C 2,7 C
14.10.2011 23:41 2,7 C 2,9 C 3,3 C 91 % 1033 hPa 0,0 l/m 0,0 m/s (0 Bft) O 100 0 min 0 lux 1,4 C 2,7 C
_ Min-Zeit 07:42 07:42 07:22 14:22 00:02 - 00:02 - - - - 07:22 07:42
Minimum _ -0,7 C 1,0 C 1,4 C 50 % 1032 hPa - 0,0 m/s (0 Bft) - - - - -1,4 C -0,7 C
_ Max-Zeit 15:01 15:01 12:42 06:02 12:22 00:02 13:42 - - 09:42 13:22 12:22 12:22
Maximum _ 11,4 C 24,8 C 11,1 C 95 % 1034 hPa 0,0 l/m 6,3 m/s
O (4 Bft)
- - 20 min 58,8 klux 5,9 C 9,9 C
Durchschnitt _ 4,6 C 8,6 C 5,4 C 82 % 1032 hPa #0,0 l/m 1,2 m/s (1 Bft) O-SO - #8:39 h 16,6 klux 1,5 C 3,3 C